Time;durP1;ratioP1;P1;durP2;ratioP2;P2;SDS_P1;SDS_P2;PMS_P1;PMS_P2;Temp;Humidity;BMP_temperature;BMP_pressure;BME280_temperature;BME280_humidity;BME280_pressure;Samples;Min_cycle;Max_cycle;Signal;HPM_P1;HPM_P2
2022/04/30 00:00:03;;;;;;;4.88;1.60;;;18.30;95.70;;;;;;6334778;22;20002;-71
2022/04/30 00:02:30;;;;;;;8.55;2.17;;;18.30;95.80;;;;;;6334305;22;20014;-72
2022/04/30 00:04:57;;;;;;;3.20;1.27;;;18.30;95.80;;;;;;6307245;22;19995;-72
2022/04/30 00:07:24;;;;;;;4.82;1.48;;;18.30;95.80;;;;;;6308153;22;19998;-71
2022/04/30 00:09:52;;;;;;;4.88;1.45;;;18.40;96.00;;;;;;6333785;22;19999;-72
2022/04/30 00:12:19;;;;;;;3.97;1.20;;;18.30;95.70;;;;;;6307921;22;20350;-72
2022/04/30 00:14:46;;;;;;;2.20;1.40;;;18.30;95.80;;;;;;6334987;22;20007;-72
2022/04/30 00:17:16;;;;;;;2.95;1.40;;;18.30;95.90;;;;;;6334572;22;20011;-72
2022/04/30 00:19:44;;;;;;;6.22;1.40;;;18.30;95.80;;;;;;6335117;22;20317;-72
2022/04/30 00:22:11;;;;;;;4.28;1.70;;;18.30;95.60;;;;;;6334940;22;20026;-72
2022/04/30 00:24:38;;;;;;;4.78;1.50;;;18.30;95.90;;;;;;6335767;22;20472;-72
2022/04/30 00:27:05;;;;;;;4.13;1.55;;;18.30;95.70;;;;;;6282617;22;19998;-72
2022/04/30 00:29:33;;;;;;;4.68;1.45;;;18.30;95.80;;;;;;6308215;22;20338;-71
2022/04/30 00:32:02;;;;;;;2.88;1.20;;;18.30;95.70;;;;;;6308296;22;20003;-71
2022/04/30 00:34:29;;;;;;;2.88;1.50;;;18.20;95.40;;;;;;6307222;22;20041;-72
2022/04/30 00:36:57;;;;;;;4.15;1.30;;;18.20;95.80;;;;;;6306936;22;20038;-72
2022/04/30 00:39:25;;;;;;;3.33;1.40;;;18.30;95.50;;;;;;6308549;22;19995;-69
2022/04/30 00:41:52;;;;;;;3.90;1.30;;;18.20;95.50;;;;;;6307579;22;20023;-72
2022/04/30 00:44:19;;;;;;;4.70;1.30;;;18.30;95.70;;;;;;6335539;22;20449;-72
2022/04/30 00:46:46;;;;;;;9.02;1.73;;;18.30;95.80;;;;;;6307708;22;20363;-72
2022/04/30 00:49:14;;;;;;;5.15;1.30;;;18.30;95.90;;;;;;6282075;22;20064;-72
2022/04/30 00:51:43;;;;;;;1.73;1.23;;;18.30;95.80;;;;;;6309790;22;20010;-72
2022/04/30 00:54:11;;;;;;;2.45;1.60;;;18.30;95.80;;;;;;6309982;22;20426;-72
2022/04/30 00:56:52;;;;;;;3.92;1.65;;;18.30;95.80;;;;;;6284104;22;20018;-72
2022/04/30 00:59:20;;;;;;;5.07;1.60;;;18.30;95.80;;;;;;6337369;22;20013;-72
2022/04/30 01:01:47;;;;;;;5.85;1.40;;;18.30;95.70;;;;;;6283038;22;20078;-72
2022/04/30 01:04:15;;;;;;;4.22;1.30;;;18.20;95.30;;;;;;6309839;22;20002;-70
2022/04/30 01:07:00;;;;;;;3.88;1.45;;;18.20;95.50;;;;;;6284463;22;20082;-69
2022/04/30 01:09:32;;;;;;;4.90;1.55;;;18.20;95.30;;;;;;6310424;22;20030;-70
2022/04/30 01:12:09;;;;;;;1.65;1.10;;;18.20;95.40;;;;;;6336809;22;20425;-69
2022/04/30 01:14:39;;;;;;;2.03;1.25;;;18.20;95.20;;;;;;6284652;22;20003;-68
2022/04/30 01:17:08;;;;;;;4.65;1.10;;;18.20;95.10;;;;;;6284436;22;20010;-68
2022/04/30 01:19:37;;;;;;;2.58;1.05;;;18.20;95.50;;;;;;6284180;22;20053;-68
2022/04/30 01:22:12;;;;;;;1.33;0.93;;;18.20;95.50;;;;;;6282802;22;20460;-69
2022/04/30 01:24:40;;;;;;;1.25;1.00;;;18.20;95.40;;;;;;6309035;22;20464;-67
2022/04/30 01:27:08;;;;;;;1.33;0.95;;;18.20;95.20;;;;;;6308947;22;20387;-68
2022/04/30 01:29:37;;;;;;;2.38;1.05;;;18.20;95.10;;;;;;6284043;22;19999;-68
2022/04/30 01:37:37;;;;;;;1.73;0.85;;;18.20;95.10;;;;;;6313412;22;20021;-69
2022/04/30 01:40:09;;;;;;;1.05;0.95;;;18.30;95.50;;;;;;6336359;22;20025;-70
2022/04/30 01:42:43;;;;;;;2.67;1.30;;;18.30;95.40;;;;;;6336296;22;20019;-69
2022/04/30 01:45:11;;;;;;;4.63;1.10;;;18.30;95.20;;;;;;6310345;22;20326;-69
2022/04/30 01:47:44;;;;;;;3.15;1.15;;;18.30;95.10;;;;;;6309006;22;20009;-71
2022/04/30 01:50:12;;;;;;;1.67;0.98;;;18.30;95.10;;;;;;6308513;22;19999;-71
2022/04/30 01:52:40;;;;;;;2.95;1.20;;;18.30;95.00;;;;;;6308167;22;20003;-70
2022/04/30 01:55:07;;;;;;;1.45;0.95;;;18.30;95.10;;;;;;6335592;22;20002;-72
2022/04/30 01:57:34;;;;;;;0.60;0.60;;;18.30;95.00;;;;;;6280200;22;20015;-71
2022/04/30 02:00:05;;;;;;;1.95;1.00;;;18.30;95.20;;;;;;6307386;22;20010;-71
2022/04/30 02:02:37;;;;;;;1.90;0.90;;;18.30;95.30;;;;;;6334584;22;20026;-72
2022/04/30 02:05:07;;;;;;;1.85;1.00;;;18.30;95.40;;;;;;6258681;22;20011;-71
2022/04/30 02:07:39;;;;;;;4.47;1.00;;;18.30;95.20;;;;;;6334136;22;20386;-71
2022/04/30 02:10:08;;;;;;;3.85;1.42;;;18.20;95.00;;;;;;6335615;22;20133;-71
2022/04/30 02:12:35;;;;;;;3.33;1.08;;;18.30;95.00;;;;;;6307632;22;19995;-71
2022/04/30 02:15:02;;;;;;;1.90;1.00;;;18.30;95.20;;;;;;6308554;22;20027;-71
2022/04/30 02:17:30;;;;;;;1.90;0.95;;;18.30;95.10;;;;;;6335397;22;20017;-71
2022/04/30 02:22:44;;;;;;;2.60;1.30;;;18.20;95.20;;;;;;6289592;22;20013;-71
2022/04/30 02:25:12;;;;;;;3.20;1.25;;;18.20;95.30;;;;;;6305597;22;20065;-72
2022/04/30 02:27:41;;;;;;;4.95;1.30;;;18.30;95.60;;;;;;6306771;22;20007;-72
2022/04/30 02:30:11;;;;;;;2.60;1.17;;;18.30;95.60;;;;;;6282848;22;20414;-71
2022/04/30 02:32:43;;;;;;;2.40;1.15;;;18.30;95.70;;;;;;6308694;22;20645;-71
2022/04/30 02:35:10;;;;;;;4.93;1.63;;;18.30;95.40;;;;;;6307582;22;20002;-71
2022/04/30 02:37:38;;;;;;;3.78;1.45;;;18.30;95.50;;;;;;6332438;22;20097;-71
2022/04/30 02:40:05;;;;;;;4.20;1.30;;;18.30;95.60;;;;;;6334792;22;20041;-71
2022/04/30 02:42:33;;;;;;;3.13;1.40;;;18.30;95.60;;;;;;6335114;22;20080;-71
2022/04/30 02:45:01;;;;;;;3.40;1.48;;;18.40;95.70;;;;;;6333983;22;19999;-71
2022/04/30 02:47:28;;;;;;;5.18;1.60;;;18.40;95.80;;;;;;6307649;22;20002;-71
2022/04/30 02:49:55;;;;;;;4.78;1.30;;;18.40;95.80;;;;;;6334726;22;20002;-70
2022/04/30 02:52:22;;;;;;;2.65;1.40;;;18.50;95.80;;;;;;6335244;22;20102;-71
2022/04/30 02:54:49;;;;;;;2.03;1.40;;;18.50;95.70;;;;;;6334284;22;20022;-70
2022/04/30 02:57:17;;;;;;;4.07;1.48;;;18.40;95.50;;;;;;6335464;22;20011;-70
2022/04/30 02:59:58;;;;;;;3.78;1.70;;;18.40;95.30;;;;;;6335460;22;20031;-71
2022/04/30 03:02:25;;;;;;;3.08;1.60;;;18.40;95.00;;;;;;6308002;22;20448;-70
2022/04/30 03:04:53;;;;;;;3.45;1.60;;;18.40;94.90;;;;;;6336223;22;20366;-70
2022/04/30 03:07:22;;;;;;;3.13;1.60;;;18.40;94.90;;;;;;6283190;22;20003;-70
2022/04/30 03:09:50;;;;;;;6.93;2.00;;;18.40;95.00;;;;;;6309087;22;20002;-70
2022/04/30 03:12:17;;;;;;;5.03;1.60;;;18.50;95.00;;;;;;6307851;22;20094;-71
2022/04/30 03:14:44;;;;;;;4.40;1.55;;;18.50;94.60;;;;;;6308215;22;20003;-70
2022/04/30 03:22:42;;;;;;;3.35;1.70;;;18.50;94.30;;;;;;6312200;22;20033;-69
2022/04/30 03:25:09;;;;;;;2.63;1.60;;;18.50;94.50;;;;;;6307801;22;20018;-68
2022/04/30 03:27:36;;;;;;;2.80;1.70;;;18.50;95.00;;;;;;6336073;22;20051;-67
2022/04/30 03:30:04;;;;;;;4.00;1.80;;;18.50;95.10;;;;;;6335536;22;20003;-68
2022/04/30 03:32:31;;;;;;;6.90;2.00;;;18.50;95.30;;;;;;6308176;22;19999;-69
2022/04/30 03:34:58;;;;;;;1.98;1.40;;;18.50;95.20;;;;;;6283203;22;20007;-69
2022/04/30 03:37:26;;;;;;;4.93;1.70;;;18.60;95.20;;;;;;6335429;22;20101;-69
2022/04/30 03:39:53;;;;;;;5.30;1.90;;;18.50;95.20;;;;;;6335335;22;20002;-68
2022/04/30 03:42:21;;;;;;;3.42;1.67;;;18.60;95.40;;;;;;6322372;22;20027;-68
2022/04/30 03:44:49;;;;;;;3.25;1.83;;;18.60;95.50;;;;;;6277144;22;20497;-70
2022/04/30 03:47:16;;;;;;;5.75;2.05;;;18.60;95.70;;;;;;6304770;22;20000;-70
2022/04/30 03:49:43;;;;;;;3.30;1.85;;;18.70;95.70;;;;;;6304662;22;20365;-69
2022/04/30 03:52:11;;;;;;;5.15;1.98;;;18.70;95.70;;;;;;6303549;22;20015;-70
2022/04/30 03:54:41;;;;;;;5.80;2.70;;;18.70;95.70;;;;;;6252161;22;19999;-71
2022/04/30 03:57:09;;;;;;;3.42;2.15;;;18.70;95.70;;;;;;6277801;22;20015;-71
2022/04/30 03:59:36;;;;;;;4.80;2.08;;;18.70;95.80;;;;;;6304983;22;20064;-71
2022/04/30 04:02:03;;;;;;;9.70;4.75;;;18.80;95.80;;;;;;6277582;22;20087;-70
2022/04/30 04:04:31;;;;;;;8.18;4.00;;;18.70;95.50;;;;;;6276370;22;20054;-69
2022/04/30 04:06:58;;;;;;;4.72;2.20;;;18.70;95.70;;;;;;6277138;22;20421;-70
2022/04/30 04:09:25;;;;;;;4.38;2.10;;;18.80;95.40;;;;;;6304376;22;20006;-69
2022/04/30 04:11:52;;;;;;;4.47;2.35;;;18.80;95.50;;;;;;6276941;22;20330;-70
2022/04/30 04:19:50;;;;;;;3.10;1.90;;;18.80;95.70;;;;;;6304336;22;20100;-68
2022/04/30 04:22:17;;;;;;;7.55;1.80;;;18.80;95.70;;;;;;6304334;22;20010;-69
2022/04/30 04:27:30;;;;;;;3.00;1.80;;;18.80;95.80;;;;;;6306666;22;20018;-69
2022/04/30 04:29:57;;;;;;;4.78;1.60;;;18.80;95.90;;;;;;6306174;22;20022;-69
2022/04/30 04:32:24;;;;;;;4.80;2.10;;;18.90;96.10;;;;;;6306458;22;20066;-70
2022/04/30 04:34:52;;;;;;;3.92;1.85;;;18.90;96.00;;;;;;6306085;22;20423;-70
2022/04/30 04:37:19;;;;;;;4.68;1.55;;;18.90;96.00;;;;;;6306547;22;20011;-70
2022/04/30 04:39:47;;;;;;;3.65;1.40;;;18.90;95.70;;;;;;6227889;22;20318;-70
2022/04/30 04:42:14;;;;;;;2.20;1.60;;;18.90;95.70;;;;;;6317128;22;20148;-70
2022/04/30 04:44:41;;;;;;;2.88;1.65;;;18.90;95.80;;;;;;6309184;22;20006;-68
2022/04/30 04:47:08;;;;;;;3.92;1.40;;;18.90;96.00;;;;;;6310361;22;20351;-69
2022/04/30 04:49:35;;;;;;;2.67;1.60;;;19.00;96.00;;;;;;6309842;22;20524;-68
2022/04/30 04:52:03;;;;;;;2.55;1.70;;;19.00;96.00;;;;;;6309989;22;19999;-69
2022/04/30 04:54:30;;;;;;;3.65;1.60;;;19.00;96.00;;;;;;6309571;22;20036;-68
2022/04/30 04:56:57;;;;;;;2.92;1.50;;;19.00;96.00;;;;;;6309730;22;20007;-68
2022/04/30 04:59:25;;;;;;;4.43;1.60;;;19.00;95.70;;;;;;6337287;22;19998;-68
2022/04/30 05:01:52;;;;;;;3.20;1.60;;;19.00;95.80;;;;;;6309124;22;20302;-68
2022/04/30 05:04:20;;;;;;;1.70;1.40;;;19.10;95.90;;;;;;6283654;22;20323;-68
2022/04/30 05:06:48;;;;;;;2.38;1.33;;;19.10;95.80;;;;;;6309499;22;20006;-67
2022/04/30 05:09:15;;;;;;;2.83;1.48;;;19.10;95.70;;;;;;6335109;22;20429;-70
2022/04/30 05:11:42;;;;;;;1.67;1.33;;;19.10;95.70;;;;;;6309410;22;20003;-69
2022/04/30 05:14:10;;;;;;;2.10;1.25;;;19.10;95.70;;;;;;6335745;22;20011;-69
2022/04/30 05:16:37;;;;;;;3.85;1.60;;;19.10;95.90;;;;;;6308897;22;20071;-69
2022/04/30 05:19:05;;;;;;;3.20;1.40;;;19.10;95.80;;;;;;6336119;22;20007;-68
2022/04/30 05:21:32;;;;;;;2.05;1.20;;;19.10;95.60;;;;;;6336362;22;20003;-68
2022/04/30 05:24:00;;;;;;;1.75;1.30;;;19.10;95.60;;;;;;6335872;22;20021;-68
2022/04/30 05:26:27;;;;;;;3.95;1.40;;;19.20;95.70;;;;;;6335276;22;20026;-69
2022/04/30 05:28:54;;;;;;;3.35;1.30;;;19.20;95.80;;;;;;6336552;22;19999;-68
2022/04/30 05:31:21;;;;;;;2.00;1.30;;;19.20;95.70;;;;;;6308265;22;20009;-68
2022/04/30 05:33:48;;;;;;;2.17;1.33;;;19.20;95.70;;;;;;6336031;22;20351;-69
2022/04/30 05:36:16;;;;;;;5.50;1.50;;;19.10;95.60;;;;;;6333475;22;20322;-69
2022/04/30 05:38:43;;;;;;;3.88;1.30;;;19.20;95.70;;;;;;6336705;22;20317;-69
2022/04/30 05:41:11;;;;;;;2.85;1.50;;;19.20;95.60;;;;;;6335952;22;20088;-68
2022/04/30 05:43:38;;;;;;;2.28;1.58;;;19.20;95.70;;;;;;6336647;22;20113;-65
2022/04/30 05:46:06;;;;;;;1.85;1.52;;;19.10;95.50;;;;;;6335876;22;20027;-66
2022/04/30 05:48:34;;;;;;;2.10;1.40;;;19.10;95.60;;;;;;6335498;22;20007;-65
2022/04/30 05:51:04;;;;;;;4.25;1.30;;;19.10;95.30;;;;;;6335977;22;20416;-67
2022/04/30 05:53:32;;;;;;;3.00;1.30;;;19.00;95.00;;;;;;6309076;22;20055;-66
2022/04/30 05:55:59;;;;;;;3.53;1.30;;;19.00;95.00;;;;;;6309107;22;20006;-67
2022/04/30 05:58:26;;;;;;;2.53;1.20;;;19.10;95.30;;;;;;6336351;22;20474;-67
2022/04/30 06:00:53;;;;;;;3.38;1.35;;;19.10;95.50;;;;;;6335451;22;20006;-67
2022/04/30 06:03:20;;;;;;;3.00;1.40;;;19.20;95.30;;;;;;6335325;22;20014;-67
2022/04/30 06:05:47;;;;;;;2.20;1.30;;;19.20;95.30;;;;;;6336136;22;20030;-68
2022/04/30 06:08:15;;;;;;;2.47;1.17;;;19.20;95.20;;;;;;6335106;22;20548;-68
2022/04/30 06:10:42;;;;;;;1.30;1.15;;;19.20;95.20;;;;;;6336709;22;20321;-68
2022/04/30 20:27:31;;;;;;;3.17;1.10;;;14.60;72.10;;;;;;6330401;22;20613;-70
2022/04/30 20:29:58;;;;;;;9.27;1.13;;;14.60;72.10;;;;;;6307728;22;20022;-69
2022/04/30 20:37:58;;;;;;;5.03;1.60;;;14.50;72.60;;;;;;6311644;22;20110;-70
2022/04/30 20:40:26;;;;;;;9.93;1.35;;;14.50;72.40;;;;;;6335750;22;19999;-70
2022/04/30 20:42:53;;;;;;;3.75;1.10;;;14.50;71.60;;;;;;6308168;22;20511;-70
2022/04/30 20:45:20;;;;;;;5.85;1.10;;;14.50;74.90;;;;;;6335168;22;20133;-72
2022/04/30 20:47:48;;;;;;;2.67;0.90;;;14.50;74.60;;;;;;6335381;22;20326;-71
2022/04/30 20:50:16;;;;;;;3.22;1.17;;;14.50;72.80;;;;;;6335287;22;20357;-73
2022/04/30 20:52:43;;;;;;;2.42;1.00;;;14.50;73.00;;;;;;6307974;22;20049;-75
2022/04/30 20:55:10;;;;;;;2.03;1.05;;;14.50;74.90;;;;;;6335319;22;20430;-68
2022/04/30 20:57:39;;;;;;;3.03;0.95;;;14.50;74.00;;;;;;6335899;22;20010;-67
2022/04/30 21:00:06;;;;;;;4.47;1.08;;;14.50;73.10;;;;;;6335695;22;20082;-68
2022/04/30 21:02:35;;;;;;;4.32;1.13;;;14.60;74.50;;;;;;6308752;22;20355;-68
2022/04/30 21:05:03;;;;;;;2.78;1.10;;;14.60;73.90;;;;;;6308201;22;20006;-68
2022/04/30 21:07:31;;;;;;;3.25;0.90;;;14.60;71.40;;;;;;6309376;22;20010;-68
2022/04/30 21:09:58;;;;;;;4.93;1.10;;;14.60;71.60;;;;;;6310336;22;20325;-67
2022/04/30 21:12:25;;;;;;;4.13;1.35;;;14.70;72.70;;;;;;6309583;22;20372;-68
2022/04/30 21:14:53;;;;;;;4.28;1.20;;;14.70;74.00;;;;;;6308990;22;20318;-68
2022/04/30 21:17:21;;;;;;;3.53;1.45;;;14.70;73.50;;;;;;6336248;22;20056;-67
2022/04/30 21:19:48;;;;;;;5.82;1.25;;;14.70;73.70;;;;;;6336382;22;19999;-68
2022/04/30 21:22:15;;;;;;;2.72;0.95;;;14.80;73.20;;;;;;6309493;22;20003;-67
2022/04/30 21:24:43;;;;;;;4.35;1.05;;;14.70;73.70;;;;;;6284075;22;20003;-67
2022/04/30 21:27:10;;;;;;;9.20;1.42;;;14.80;73.40;;;;;;6336718;22;20483;-67
2022/04/30 21:29:40;;;;;;;9.25;1.63;;;14.80;71.60;;;;;;6309036;22;20003;-67
2022/04/30 21:32:09;;;;;;;2.83;1.08;;;14.80;72.40;;;;;;6309121;22;20354;-68
2022/04/30 21:34:36;;;;;;;5.55;1.23;;;14.80;71.60;;;;;;6309213;22;20448;-71
2022/04/30 21:37:04;;;;;;;2.45;0.95;;;14.80;70.00;;;;;;6306329;22;20081;-69
2022/04/30 21:39:32;;;;;;;4.43;1.38;;;14.80;70.80;;;;;;6334823;22;19999;-69
2022/04/30 21:41:59;;;;;;;3.22;1.20;;;14.90;71.60;;;;;;6308967;22;20029;-72
2022/04/30 21:44:27;;;;;;;3.03;1.05;;;15.00;73.10;;;;;;6335678;22;20006;-71
2022/04/30 21:46:54;;;;;;;5.25;1.67;;;15.00;73.10;;;;;;6309411;22;20436;-70
2022/04/30 21:49:21;;;;;;;19.90;1.75;;;15.00;72.00;;;;;;6336887;22;20034;-74
2022/04/30 21:51:52;;;;;;;3.90;1.25;;;15.00;73.20;;;;;;6336630;22;19999;-74
2022/04/30 21:59:48;;;;;;;3.13;1.17;;;15.00;71.50;;;;;;6310624;22;20046;-73
2022/04/30 21:59:54;;;;;;;2.30;1.10;;;15.10;72.70;;;;;;6337077;22;20045;-73
2022/04/30 22:02:22;;;;;;;6.47;1.40;;;15.10;70.90;;;;;;6336743;22;20024;-73
2022/04/30 22:04:49;;;;;;;7.40;1.30;;;15.20;71.90;;;;;;6336408;22;20075;-73
2022/04/30 22:07:16;;;;;;;7.90;1.20;;;15.20;72.80;;;;;;6335474;22;20006;-69
2022/04/30 22:09:43;;;;;;;2.05;0.90;;;15.20;71.70;;;;;;6282605;22;20109;-70
2022/04/30 22:12:10;;;;;;;5.47;1.45;;;15.20;71.30;;;;;;6335910;22;20021;-70
2022/04/30 22:14:38;;;;;;;7.60;1.10;;;15.20;73.50;;;;;;6308303;22;21053;-70
2022/04/30 22:17:05;;;;;;;3.45;0.95;;;15.30;73.90;;;;;;6335177;22;20341;-72
2022/04/30 22:19:33;;;;;;;3.78;1.23;;;15.30;73.80;;;;;;6336597;22;20022;-70
2022/04/30 22:22:00;;;;;;;4.35;1.00;;;15.30;72.70;;;;;;6335484;22;20031;-70
2022/04/30 22:30:28;;;;;;;5.05;1.13;;;15.30;72.80;;;;;;6329564;22;20122;-70
2022/04/30 22:32:55;;;;;;;9.52;1.45;;;15.30;74.40;;;;;;6336490;22;20019;-72
2022/04/30 22:35:22;;;;;;;3.17;1.70;;;15.30;74.40;;;;;;6335119;22;20059;-71
2022/04/30 22:37:50;;;;;;;2.83;1.10;;;15.30;74.70;;;;;;6335119;22;20101;-75
2022/04/30 22:43:02;;;;;;;6.68;1.20;;;15.50;74.50;;;;;;6336623;22;20079;-72
2022/04/30 22:45:29;;;;;;;3.90;1.38;;;15.50;73.70;;;;;;6335670;22;20438;-74
2022/04/30 22:47:56;;;;;;;2.97;1.30;;;15.50;72.70;;;;;;6335516;22;19999;-69
2022/04/30 22:50:23;;;;;;;4.05;1.10;;;15.70;73.70;;;;;;6283252;22;20055;-74
2022/04/30 22:52:51;;;;;;;3.90;1.20;;;15.70;72.10;;;;;;6335972;22;20003;-71
2022/04/30 22:55:18;;;;;;;10.48;1.77;;;15.70;72.20;;;;;;6335988;22;20009;-72
2022/04/30 22:57:45;;;;;;;6.40;1.73;;;15.80;73.50;;;;;;6335914;22;20003;-81
2022/04/30 23:00:12;;;;;;;4.28;1.23;;;15.80;72.60;;;;;;6336638;22;20079;-76
2022/04/30 23:02:39;;;;;;;4.07;1.30;;;15.80;71.70;;;;;;6335364;22;20015;-79
2022/04/30 23:05:08;;;;;;;12.70;2.53;;;15.90;72.90;;;;;;6335883;22;19999;-76
2022/04/30 23:07:37;;;;;;;5.43;1.75;;;15.90;71.40;;;;;;6308801;22;19999;-76
2022/04/30 23:10:05;;;;;;;4.03;1.38;;;15.90;71.40;;;;;;6309236;22;20003;-69
2022/04/30 23:12:32;;;;;;;4.53;1.70;;;16.00;71.20;;;;;;6336778;22;20005;-73
2022/04/30 23:14:59;;;;;;;6.93;1.48;;;16.00;70.00;;;;;;6335403;22;20085;-76
2022/04/30 23:17:27;;;;;;;5.55;1.30;;;16.00;69.80;;;;;;6308228;22;20029;-77
2022/04/30 23:19:54;;;;;;;7.57;1.42;;;16.10;68.90;;;;;;6308699;22;20048;-76
2022/04/30 23:22:21;;;;;;;7.63;1.80;;;16.00;67.60;;;;;;6336356;22;20078;-72
2022/04/30 23:24:48;;;;;;;6.93;1.50;;;16.00;67.50;;;;;;6336299;22;19999;-76
2022/04/30 23:27:16;;;;;;;5.20;1.38;;;16.10;67.70;;;;;;6335634;22;19994;-78
2022/04/30 23:29:43;;;;;;;2.75;1.20;;;16.10;67.80;;;;;;6335713;22;20006;-80
2022/04/30 23:32:10;;;;;;;3.45;1.02;;;16.20;67.60;;;;;;6336253;22;20025;-72
2022/04/30 23:34:37;;;;;;;2.28;1.10;;;16.20;66.70;;;;;;6335956;22;20044;-71
2022/04/30 23:37:05;;;;;;;3.67;1.25;;;16.20;66.90;;;;;;6335991;22;19999;-72
2022/04/30 23:39:32;;;;;;;2.60;1.02;;;16.30;68.00;;;;;;6256652;22;20007;-78
2022/04/30 23:41:59;;;;;;;4.45;1.30;;;16.30;68.20;;;;;;6335564;22;20052;-77
2022/04/30 23:44:26;;;;;;;5.30;1.38;;;16.30;68.70;;;;;;6335797;22;20003;-71
2022/04/30 23:46:54;;;;;;;5.30;1.85;;;16.30;69.40;;;;;;6308416;22;20025;-73
2022/04/30 23:49:22;;;;;;;8.15;1.92;;;16.40;68.20;;;;;;6335312;22;20003;-78
2022/04/30 23:51:52;;;;;;;8.77;2.20;;;16.40;67.40;;;;;;6308218;22;20003;-72
2022/04/30 23:54:22;;;;;;;;;;;16.50;67.60;;;;;;6335514;22;20011;-77
2022/04/30 23:56:49;;;;;;;9.27;1.90;;;16.50;67.50;;;;;;6335799;22;19906;-77
2022/04/30 23:59:16;;;;;;;6.50;1.65;;;16.60;67.90;;;;;;6335044;22;20243;-75
